Time;durP1;ratioP1;P1;durP2;ratioP2;P2;SDS_P1;SDS_P2;PMS_P1;PMS_P2;Temp;Humidity;BMP_temperature;BMP_pressure;BME280_temperature;BME280_humidity;BME280_pressure;Samples;Min_cycle;Max_cycle;Signal;HPM_P1;HPM_P2
2022/12/22 03:27:21;;;;;;;3.28;2.13;;;;;;;;;;5045124;28;19909;-84
2022/12/22 03:29:46;;;;;;;3.42;2.10;;;;;;;;;;5044471;28;20040;-84
2022/12/22 03:32:12;;;;;;;3.95;2.10;;;;;;;;;;5044004;28;20040;-84
2022/12/22 03:34:37;;;;;;;3.78;2.25;;;;;;;;;;5044398;28;20060;-84
2022/12/22 03:37:03;;;;;;;3.63;2.00;;;;;;;;;;5044193;28;20092;-84
2022/12/22 03:39:28;;;;;;;7.70;2.17;;;;;;;;;;5010854;28;20041;-84
2022/12/22 03:47:22;;;;;;;2.70;1.73;;;;;;;;;;5044615;28;20033;-84
2022/12/22 03:49:47;;;;;;;2.65;2.00;;;;;;;;;;5026641;28;20497;-84
2022/12/22 03:52:13;;;;;;;3.42;1.75;;;;;;;;;;5044227;28;20053;-84
2022/12/22 03:54:38;;;;;;;3.88;2.20;;;;;;;;;;5043818;28;20029;-84
2022/12/22 03:57:03;;;;;;;2.72;2.15;;;;;;;;;;5043357;28;20086;-84
2022/12/22 03:59:29;;;;;;;3.97;2.30;;;;;;;;;;5043734;28;20555;-84
2022/12/22 04:01:54;;;;;;;5.00;2.80;;;;;;;;;;5024646;28;20061;-83
2022/12/22 04:04:23;;;;;;;2.92;2.20;;;;;;;;;;5041391;28;20470;-83
2022/12/22 04:06:49;;;;;;;4.03;2.90;;;;;;;;;;5042571;28;20021;-83
2022/12/22 04:09:15;;;;;;;4.22;2.40;;;;;;;;;;5025021;28;20036;-83
2022/12/22 04:14:32;;;;;;;4.35;2.50;;;;;;;;;;5017977;28;20041;-83
2022/12/22 04:16:57;;;;;;;3.70;2.35;;;;;;;;;;5043015;28;20433;-84
2022/12/22 04:19:24;;;;;;;3.17;2.20;;;;;;;;;;5042368;28;20112;-84
2022/12/22 04:21:49;;;;;;;3.03;2.10;;;;;;;;;;5042147;28;20089;-84
2022/12/22 04:24:15;;;;;;;5.18;2.17;;;;;;;;;;5041573;28;20055;-84
2022/12/22 04:26:40;;;;;;;7.25;2.40;;;;;;;;;;5042306;28;20029;-83
2022/12/22 04:29:06;;;;;;;4.30;2.60;;;;;;;;;;5042292;28;20021;-83
2022/12/22 04:31:31;;;;;;;4.28;2.55;;;;;;;;;;5023578;28;20119;-84
2022/12/22 04:33:57;;;;;;;6.20;3.80;;;;;;;;;;5042104;28;20080;-82
2022/12/22 04:36:22;;;;;;;5.00;3.00;;;;;;;;;;5041796;28;20067;-84
2022/12/22 04:38:48;;;;;;;4.18;2.83;;;;;;;;;;5042244;28;20030;-84
2022/12/22 04:41:13;;;;;;;4.10;2.75;;;;;;;;;;5042250;28;20167;-84
2022/12/22 04:43:39;;;;;;;7.38;2.83;;;;;;;;;;5024774;28;20033;-84
2022/12/22 04:46:05;;;;;;;4.30;3.08;;;;;;;;;;5042209;28;20025;-82
2022/12/22 04:48:31;;;;;;;5.88;3.08;;;;;;;;;;5043021;28;20040;-84
2022/12/22 04:50:58;;;;;;;3.72;2.60;;;;;;;;;;5042961;28;20426;-84
2022/12/22 04:53:25;;;;;;;3.60;2.78;;;;;;;;;;5042283;28;20041;-83
2022/12/22 04:55:57;;;;;;;4.25;2.70;;;;;;;;;;5042041;28;20175;-84
2022/12/22 04:58:22;;;;;;;5.07;2.75;;;;;;;;;;5024872;28;20067;-83
2022/12/22 05:00:48;;;;;;;5.63;3.58;;;;;;;;;;5003451;28;1106164;-84
2022/12/22 05:03:13;;;;;;;4.63;3.20;;;;;;;;;;5042844;28;20052;-83
2022/12/22 05:05:40;;;;;;;6.05;2.97;;;;;;;;;;5042153;28;20360;-83
2022/12/22 05:08:05;;;;;;;4.65;2.90;;;;;;;;;;5025170;28;20044;-83
2022/12/22 05:10:31;;;;;;;4.78;3.05;;;;;;;;;;5042544;28;20041;-84
2022/12/22 05:12:57;;;;;;;5.78;3.17;;;;;;;;;;5025589;28;20033;-84
2022/12/22 05:15:28;;;;;;;4.20;2.63;;;;;;;;;;5024425;28;20040;-84
2022/12/22 05:17:55;;;;;;;4.80;2.50;;;;;;;;;;5042266;28;20034;-83
2022/12/22 05:20:22;;;;;;;3.95;2.55;;;;;;;;;;5041657;28;20477;-83
2022/12/22 05:22:47;;;;;;;4.70;2.65;;;;;;;;;;5041783;28;20044;-84
2022/12/22 05:25:16;;;;;;;4.70;2.80;;;;;;;;;;5023337;28;20065;-84
2022/12/22 05:27:47;;;;;;;4.97;2.78;;;;;;;;;;5042246;28;20029;-84
2022/12/22 05:30:14;;;;;;;4.68;2.80;;;;;;;;;;5041210;28;20049;-84
2022/12/22 05:32:39;;;;;;;4.72;2.90;;;;;;;;;;5041243;28;20053;-84
2022/12/22 05:35:06;;;;;;;6.18;3.00;;;;;;;;;;5040545;28;20084;-84
2022/12/22 05:37:31;;;;;;;6.10;3.40;;;;;;;;;;5041382;28;20425;-85
2022/12/22 05:39:57;;;;;;;4.78;2.83;;;;;;;;;;5040699;28;20038;-85
2022/12/22 05:42:34;;;;;;;4.97;3.00;;;;;;;;;;5040559;28;20034;-85
2022/12/22 05:45:20;;;;;;;4.50;3.10;;;;;;;;;;5039733;28;20025;-84
2022/12/22 05:47:50;;;;;;;5.60;3.28;;;;;;;;;;5041405;28;20021;-84
2022/12/22 05:50:20;;;;;;;8.13;4.15;;;;;;;;;;5040679;28;20044;-84
2022/12/22 05:52:55;;;;;;;7.82;4.50;;;;;;;;;;5040612;28;20021;-84
2022/12/22 05:55:21;;;;;;;9.40;4.22;;;;;;;;;;5040494;28;20028;-84
2022/12/22 05:57:46;;;;;;;5.00;3.40;;;;;;;;;;5040564;28;20509;-84
2022/12/22 06:00:14;;;;;;;2.55;2.00;;;;;;;;;;5040477;28;20039;-84
2022/12/22 06:02:41;;;;;;;1.90;1.50;;;;;;;;;;5005856;28;20029;-83
2022/12/22 06:05:07;;;;;;;2.50;1.77;;;;;;;;;;5021897;28;20088;-83
2022/12/22 06:07:33;;;;;;;2.13;1.77;;;;;;;;;;5040405;28;20052;-83
2022/12/22 06:09:59;;;;;;;2.70;1.80;;;;;;;;;;5022556;28;20398;-83
2022/12/22 06:12:24;;;;;;;2.28;1.75;;;;;;;;;;5040062;28;20048;-83
2022/12/22 06:14:49;;;;;;;3.20;1.55;;;;;;;;;;5039792;28;20022;-83
2022/12/22 06:17:15;;;;;;;2.85;1.80;;;;;;;;;;5040914;28;20037;-83
2022/12/22 06:19:40;;;;;;;5.32;2.20;;;;;;;;;;5040426;28;20072;-83
2022/12/22 06:22:06;;;;;;;3.60;2.30;;;;;;;;;;5021681;28;20095;-83
2022/12/22 06:24:31;;;;;;;4.03;2.20;;;;;;;;;;5021833;28;20029;-83
2022/12/22 06:26:57;;;;;;;3.97;2.30;;;;;;;;;;5039745;28;20435;-83
2022/12/22 06:29:22;;;;;;;4.75;2.88;;;;;;;;;;5039435;28;20037;-83
2022/12/22 06:31:48;;;;;;;4.45;2.95;;;;;;;;;;5038890;28;20689;-83
2022/12/22 06:34:16;;;;;;;5.03;3.65;;;;;;;;;;5037358;28;20470;-84
2022/12/22 06:36:43;;;;;;;7.10;3.47;;;;;;;;;;5037474;28;20029;-83
2022/12/22 06:39:09;;;;;;;4.53;3.05;;;;;;;;;;5037187;28;20126;-84
2022/12/22 06:44:18;;;;;;;4.13;2.88;;;;;;;;;;5037610;28;20371;-84
2022/12/22 06:46:44;;;;;;;5.60;3.00;;;;;;;;;;5038268;28;20528;-83
2022/12/22 06:49:09;;;;;;;6.95;3.83;;;;;;;;;;5019565;28;20044;-83
2022/12/22 06:51:35;;;;;;;7.88;3.53;;;;;;;;;;5037786;28;20029;-84
2022/12/22 06:54:00;;;;;;;6.30;3.38;;;;;;;;;;5037151;28;20034;-83
2022/12/22 06:56:26;;;;;;;4.35;2.78;;;;;;;;;;5038214;28;20116;-84
2022/12/22 06:58:52;;;;;;;4.05;3.10;;;;;;;;;;5038810;28;20064;-84
2022/12/22 07:01:17;;;;;;;3.70;2.90;;;;;;;;;;5038348;28;20046;-84
2022/12/22 07:03:42;;;;;;;4.00;3.10;;;;;;;;;;5020053;28;20025;-83
2022/12/22 07:06:08;;;;;;;4.20;2.92;;;;;;;;;;5035987;28;20021;-83
2022/12/22 07:08:33;;;;;;;4.43;2.83;;;;;;;;;;5036636;28;20132;-83
2022/12/22 07:10:59;;;;;;;4.97;3.00;;;;;;;;;;5035737;28;20095;-83
2022/12/22 07:13:28;;;;;;;4.15;2.50;;;;;;;;;;5039692;28;20052;-83
2022/12/22 07:15:53;;;;;;;5.40;3.20;;;;;;;;;;5039717;28;20754;-84
2022/12/22 07:18:19;;;;;;;5.57;3.30;;;;;;;;;;5040070;28;20036;-84
2022/12/22 07:20:45;;;;;;;6.18;3.50;;;;;;;;;;5040525;28;20021;-84
2022/12/22 07:23:11;;;;;;;6.80;3.50;;;;;;;;;;5041184;28;20033;-83
2022/12/22 07:25:36;;;;;;;5.43;2.90;;;;;;;;;;5040955;28;20025;-83
2022/12/22 07:28:02;;;;;;;6.82;2.75;;;;;;;;;;5042920;28;20029;-84
2022/12/22 07:30:28;;;;;;;5.53;2.92;;;;;;;;;;5042098;28;20021;-84
2022/12/22 07:32:53;;;;;;;4.80;2.78;;;;;;;;;;5041644;28;20037;-83
2022/12/22 07:35:19;;;;;;;4.60;2.70;;;;;;;;;;5040965;28;20021;-83
2022/12/22 07:37:47;;;;;;;5.82;2.55;;;;;;;;;;5040972;28;20389;-83
2022/12/22 07:40:12;;;;;;;5.80;3.00;;;;;;;;;;5040485;28;20220;-83
2022/12/22 07:42:43;;;;;;;6.60;2.55;;;;;;;;;;5039236;28;20057;-84
2022/12/22 07:45:17;;;;;;;4.85;2.38;;;;;;;;;;5022050;28;20633;-83
2022/12/22 07:47:43;;;;;;;6.43;2.63;;;;;;;;;;5040374;28;20104;-85
2022/12/22 07:50:31;;;;;;;5.10;2.55;;;;;;;;;;5039124;28;20025;-83
2022/12/22 07:53:02;;;;;;;5.38;3.13;;;;;;;;;;5021316;28;20029;-84
2022/12/22 07:55:30;;;;;;;4.20;2.65;;;;;;;;;;5038708;28;20087;-85
2022/12/22 07:57:55;;;;;;;4.20;2.22;;;;;;;;;;5040362;28;20060;-84
2022/12/22 08:00:22;;;;;;;3.65;2.30;;;;;;;;;;5022469;28;20030;-84
2022/12/22 08:02:53;;;;;;;3.55;2.50;;;;;;;;;;5039466;28;20516;-84
2022/12/22 08:05:19;;;;;;;3.83;2.30;;;;;;;;;;5039627;28;20033;-84
2022/12/22 08:07:47;;;;;;;8.68;2.20;;;;;;;;;;5041003;28;20060;-84
2022/12/22 08:10:13;;;;;;;5.53;2.35;;;;;;;;;;5040091;28;20113;-84
2022/12/22 08:12:38;;;;;;;4.95;2.90;;;;;;;;;;5040471;28;20148;-84
2022/12/22 08:15:06;;;;;;;5.50;3.03;;;;;;;;;;5040041;28;20026;-82
2022/12/22 08:17:34;;;;;;;4.85;2.47;;;;;;;;;;5041151;28;20059;-83
2022/12/22 08:19:59;;;;;;;5.43;2.75;;;;;;;;;;5023217;28;20029;-83
2022/12/22 08:22:25;;;;;;;4.35;2.78;;;;;;;;;;5041055;28;20031;-83
2022/12/22 08:24:52;;;;;;;4.18;2.33;;;;;;;;;;5021388;28;20025;-83
2022/12/22 08:27:25;;;;;;;3.35;1.70;;;;;;;;;;5040295;28;20041;-83
2022/12/22 08:29:55;;;;;;;4.53;2.10;;;;;;;;;;5039286;28;20048;-83
2022/12/22 08:32:21;;;;;;;2.60;2.00;;;;;;;;;;5020533;28;20029;-82
2022/12/22 08:34:49;;;;;;;3.65;1.92;;;;;;;;;;5038650;28;20104;-82
2022/12/22 08:37:19;;;;;;;4.32;2.25;;;;;;;;;;5038733;28;20017;-82
2022/12/22 08:39:51;;;;;;;4.35;2.58;;;;;;;;;;5039005;28;20037;-82
2022/12/22 08:42:18;;;;;;;6.03;2.70;;;;;;;;;;5020883;28;20040;-82
2022/12/22 08:44:46;;;;;;;5.20;2.22;;;;;;;;;;5038334;28;20041;-85
2022/12/22 08:47:11;;;;;;;3.38;2.05;;;;;;;;;;5040088;28;20052;-83
2022/12/22 08:49:37;;;;;;;3.70;2.00;;;;;;;;;;5039428;28;20033;-83
2022/12/22 08:52:03;;;;;;;3.92;1.90;;;;;;;;;;5039071;28;20052;-84
2022/12/22 08:54:28;;;;;;;3.72;1.80;;;;;;;;;;5039144;28;20029;-85
2022/12/22 08:56:54;;;;;;;4.63;2.03;;;;;;;;;;5041882;28;20048;-84
2022/12/22 08:59:20;;;;;;;3.08;1.80;;;;;;;;;;5022734;28;20040;-84
2022/12/22 09:01:49;;;;;;;3.05;2.00;;;;;;;;;;5021748;28;20029;-84
2022/12/22 09:04:19;;;;;;;4.22;2.30;;;;;;;;;;5040102;28;20424;-81
2022/12/22 09:06:45;;;;;;;6.45;2.80;;;;;;;;;;5043502;28;20085;-82
2022/12/22 09:09:13;;;;;;;3.40;1.95;;;;;;;;;;5025386;28;20068;-82
2022/12/22 09:11:39;;;;;;;4.53;1.75;;;;;;;;;;5043436;28;20386;-84
2022/12/22 09:14:04;;;;;;;2.72;1.88;;;;;;;;;;5040596;28;20069;-83
2022/12/22 09:16:31;;;;;;;3.22;1.73;;;;;;;;;;5036070;28;20083;-83
2022/12/22 09:18:58;;;;;;;3.25;2.00;;;;;;;;;;5018218;28;20029;-81
2022/12/22 09:21:24;;;;;;;2.80;1.80;;;;;;;;;;5036484;28;20406;-83
2022/12/22 09:23:50;;;;;;;3.20;1.77;;;;;;;;;;5018099;28;20032;-81
2022/12/22 09:26:18;;;;;;;3.30;1.90;;;;;;;;;;5036292;28;20025;-83
2022/12/22 09:28:44;;;;;;;5.18;3.00;;;;;;;;;;5038519;28;20067;-84
2022/12/22 09:31:10;;;;;;;5.13;2.58;;;;;;;;;;5039192;28;20056;-82
2022/12/22 09:33:36;;;;;;;4.90;2.50;;;;;;;;;;5041089;28;20120;-81
2022/12/22 09:36:10;;;;;;;2.90;1.90;;;;;;;;;;5040406;28;20545;-81
2022/12/22 09:38:37;;;;;;;4.18;2.47;;;;;;;;;;5040680;28;20029;-81
2022/12/22 09:41:26;;;;;;;4.22;2.58;;;;;;;;;;5022735;28;20041;-81
2022/12/22 09:43:51;;;;;;;8.25;2.88;;;;;;;;;;5040555;28;20040;-81
2022/12/22 09:46:29;;;;;;;4.30;2.15;;;;;;;;;;5021893;28;20029;-82
2022/12/22 09:48:54;;;;;;;3.83;2.20;;;;;;;;;;5022281;28;20029;-82
2022/12/22 09:51:21;;;;;;;4.60;2.03;;;;;;;;;;5041687;28;20112;-81
2022/12/22 09:53:52;;;;;;;2.30;1.60;;;;;;;;;;5039955;28;20089;-81
2022/12/22 09:56:18;;;;;;;2.72;1.90;;;;;;;;;;5041322;28;20394;-81
2022/12/22 09:58:45;;;;;;;2.58;1.70;;;;;;;;;;5005134;28;20033;-82
2022/12/22 10:01:38;;;;;;;3.30;2.03;;;;;;;;;;5038564;28;20021;-80
2022/12/22 10:04:15;;;;;;;2.60;1.83;;;;;;;;;;5018896;28;20033;-82
2022/12/22 10:07:04;;;;;;;3.28;1.83;;;;;;;;;;5039894;28;20058;-84
2022/12/22 10:09:31;;;;;;;2.70;1.60;;;;;;;;;;5041180;28;20033;-84
2022/12/22 10:11:59;;;;;;;2.30;1.60;;;;;;;;;;5022793;28;20036;-83
2022/12/22 10:14:32;;;;;;;3.00;1.65;;;;;;;;;;5021731;28;20508;-83
2022/12/22 10:17:22;;;;;;;2.75;1.80;;;;;;;;;;5040170;28;20025;-82
2022/12/22 10:19:50;;;;;;;3.42;1.70;;;;;;;;;;5040438;28;20034;-84
2022/12/22 10:22:28;;;;;;;2.97;1.52;;;;;;;;;;5039974;28;20029;-83
2022/12/22 10:24:54;;;;;;;5.45;2.00;;;;;;;;;;5040160;28;20141;-83
2022/12/22 10:27:24;;;;;;;3.83;1.75;;;;;;;;;;5021826;28;20252;-83
2022/12/22 10:29:50;;;;;;;2.42;1.60;;;;;;;;;;5040771;28;20038;-83
2022/12/22 10:32:19;;;;;;;3.08;1.70;;;;;;;;;;5040340;28;20052;-83
2022/12/22 10:35:05;;;;;;;2.15;1.33;;;;;;;;;;5021946;28;20036;-83
2022/12/22 10:37:38;;;;;;;2.10;1.40;;;;;;;;;;5039682;28;20045;-83
2022/12/22 10:40:20;;;;;;;2.47;1.70;;;;;;;;;;5040523;28;20500;-83
2022/12/22 10:42:52;;;;;;;2.83;1.40;;;;;;;;;;5040835;28;20044;-83
2022/12/22 10:45:24;;;;;;;3.03;1.65;;;;;;;;;;5039071;28;20040;-83
2022/12/22 10:47:53;;;;;;;3.25;1.90;;;;;;;;;;5042368;28;20033;-83
2022/12/22 10:50:20;;;;;;;3.35;2.10;;;;;;;;;;5026921;28;20052;-84
2022/12/22 10:52:55;;;;;;;2.80;1.67;;;;;;;;;;5027225;28;20076;-83
2022/12/22 10:55:28;;;;;;;2.60;1.70;;;;;;;;;;5025984;28;20029;-83
2022/12/22 10:58:14;;;;;;;3.17;1.80;;;;;;;;;;5044569;28;20041;-84
2022/12/22 11:00:40;;;;;;;3.03;1.80;;;;;;;;;;5026514;28;20040;-83
2022/12/22 11:03:10;;;;;;;3.50;1.77;;;;;;;;;;5044566;28;20041;-85
2022/12/22 11:05:36;;;;;;;4.10;1.90;;;;;;;;;;5024164;28;20029;-83
2022/12/22 11:08:17;;;;;;;2.80;1.67;;;;;;;;;;5042913;28;20087;-85
2022/12/22 11:11:06;;;;;;;3.22;1.88;;;;;;;;;;5041503;28;20032;-85
2022/12/22 11:13:58;;;;;;;3.58;1.90;;;;;;;;;;5041581;28;20452;-83
2022/12/22 11:16:41;;;;;;;2.67;1.77;;;;;;;;;;5000871;28;20045;-82
2022/12/22 11:19:35;;;;;;;3.97;2.80;;;;;;;;;;5042628;28;20416;-82
2022/12/22 11:22:08;;;;;;;4.03;2.60;;;;;;;;;;5041829;28;20033;-81
2022/12/22 11:24:57;;;;;;;3.45;2.33;;;;;;;;;;5041089;28;20033;-81
2022/12/22 11:28:02;;;;;;;2.90;1.85;;;;;;;;;;5041764;28;20026;-83
2022/12/22 11:30:33;;;;;;;;;;;;;;;;;;5023703;28;20048;-80
2022/12/22 11:33:04;;;;;;;2.70;1.63;;;;;;;;;;5041327;28;19980;-84
2022/12/22 11:35:52;;;;;;;2.65;1.55;;;;;;;;;;5023305;28;20038;-83
2022/12/22 11:38:40;;;;;;;3.97;1.88;;;;;;;;;;5041208;28;20485;-83
2022/12/22 11:41:16;;;;;;;5.38;3.30;;;;;;;;;;5039779;28;20041;-83
2022/12/22 11:43:54;;;;;;;6.65;3.30;;;;;;;;;;5022756;28;20478;-82
2022/12/22 11:46:25;;;;;;;5.07;2.80;;;;;;;;;;5039692;28;20025;-83
2022/12/22 11:49:02;;;;;;;4.18;2.50;;;;;;;;;;5039876;28;20120;-83
2022/12/22 11:51:43;;;;;;;6.75;2.90;;;;;;;;;;5039638;28;20025;-82
2022/12/22 11:54:14;;;;;;;3.25;2.00;;;;;;;;;;5045641;28;20041;-81
2022/12/22 11:57:00;;;;;;;2.92;2.00;;;;;;;;;;5047176;28;20540;-81
2022/12/22 11:59:40;;;;;;;3.47;2.00;;;;;;;;;;5016724;28;20042;-81
2022/12/22 12:02:24;;;;;;;2.20;1.60;;;;;;;;;;5029560;28;20048;-82
2022/12/22 12:04:58;;;;;;;;;;;;;;;;;;5047360;28;20034;-82
2022/12/22 12:07:36;;;;;;;3.63;1.90;;;;;;;;;;5030039;28;19951;-82
2022/12/22 12:10:25;;;;;;;5.82;3.08;;;;;;;;;;5025276;28;20116;-82
2022/12/22 12:13:02;;;;;;;2.63;1.83;;;;;;;;;;5040296;28;20033;-81
2022/12/22 12:15:31;;;;;;;2.80;1.55;;;;;;;;;;5040390;28;20117;-81
2022/12/22 12:17:56;;;;;;;2.45;1.60;;;;;;;;;;5025448;28;20378;-82
2022/12/22 12:20:44;;;;;;;2.92;1.75;;;;;;;;;;5043492;28;20027;-82
2022/12/22 12:23:46;;;;;;;4.05;1.90;;;;;;;;;;5038275;28;20037;-83
2022/12/22 12:26:23;;;;;;;2.92;2.00;;;;;;;;;;5018374;28;20047;-84
2022/12/22 12:28:54;;;;;;;4.30;2.30;;;;;;;;;;5035270;28;20035;-82
2022/12/22 12:31:25;;;;;;;3.60;2.25;;;;;;;;;;5017989;28;20112;-81
2022/12/22 12:33:59;;;;;;;6.47;2.85;;;;;;;;;;5017695;28;20037;-81
2022/12/22 12:36:49;;;;;;;4.40;1.92;;;;;;;;;;5035720;28;20437;-81
2022/12/22 12:39:31;;;;;;;4.35;2.15;;;;;;;;;;5035722;28;20470;-82
2022/12/22 12:41:56;;;;;;;3.20;1.70;;;;;;;;;;5035569;28;20034;-83
2022/12/22 12:44:26;;;;;;;5.22;1.73;;;;;;;;;;5017858;28;20091;-82
2022/12/22 12:46:51;;;;;;;2.90;1.60;;;;;;;;;;5035514;28;20422;-81
2022/12/22 12:49:32;;;;;;;3.85;2.50;;;;;;;;;;5035941;28;20117;-83
2022/12/22 12:52:00;;;;;;;6.07;2.28;;;;;;;;;;5035727;28;20250;-82
2022/12/22 12:54:25;;;;;;;5.53;2.70;;;;;;;;;;5017461;28;20036;-83
2022/12/22 12:57:10;;;;;;;5.55;2.80;;;;;;;;;;5035770;28;20029;-84
2022/12/22 12:59:41;;;;;;;7.57;4.05;;;;;;;;;;5035810;28;20041;-83
2022/12/22 13:02:25;;;;;;;5.03;3.05;;;;;;;;;;5035506;28;20033;-82
2022/12/22 13:05:35;;;;;;;5.95;2.72;;;;;;;;;;5035403;28;20033;-83
2022/12/22 13:08:23;;;;;;;5.28;2.80;;;;;;;;;;5006361;28;20052;-83
2022/12/22 13:10:54;;;;;;;3.30;2.30;;;;;;;;;;5034820;28;20029;-83
2022/12/22 13:13:20;;;;;;;2.67;1.60;;;;;;;;;;5017504;28;20071;-82
2022/12/22 13:15:47;;;;;;;3.72;1.85;;;;;;;;;;5016558;28;20053;-84
2022/12/22 13:18:24;;;;;;;3.92;1.80;;;;;;;;;;5037856;28;20033;-83
2022/12/22 13:21:15;;;;;;;4.53;1.40;;;;;;;;;;5035150;28;20029;-84
2022/12/22 13:23:55;;;;;;;2.10;1.50;;;;;;;;;;5036166;28;20157;-84
2022/12/22 13:26:27;;;;;;;3.60;1.60;;;;;;;;;;5037307;28;20102;-83
2022/12/22 13:29:25;;;;;;;3.42;1.83;;;;;;;;;;5036987;28;20037;-83
2022/12/22 13:31:59;;;;;;;3.72;1.42;;;;;;;;;;5033039;28;20042;-83
2022/12/22 13:34:44;;;;;;;3.38;1.92;;;;;;;;;;5037898;28;20041;-83
2022/12/22 13:37:21;;;;;;;4.45;2.10;;;;;;;;;;5037508;28;20037;-81
2022/12/22 13:40:11;;;;;;;4.13;1.70;;;;;;;;;;5036128;28;20465;-83
2022/12/22 13:42:58;;;;;;;2.17;1.33;;;;;;;;;;5035200;28;20030;-84
2022/12/22 13:45:35;;;;;;;1.52;1.20;;;;;;;;;;5033946;28;20249;-83
2022/12/22 13:48:07;;;;;;;2.30;1.45;;;;;;;;;;5035084;28;20045;-84
2022/12/22 13:50:41;;;;;;;3.55;1.98;;;;;;;;;;5035548;28;20032;-82
2022/12/22 13:53:10;;;;;;;4.60;2.10;;;;;;;;;;5036648;28;20041;-82
2022/12/22 13:55:36;;;;;;;2.70;1.63;;;;;;;;;;5036393;28;20033;-81
2022/12/22 13:58:08;;;;;;;3.78;1.45;;;;;;;;;;5038427;28;20060;-82
2022/12/22 14:00:34;;;;;;;2.95;1.80;;;;;;;;;;5037868;28;20036;-81
2022/12/22 14:02:59;;;;;;;5.05;2.08;;;;;;;;;;5037953;28;20060;-82
2022/12/22 14:05:30;;;;;;;4.90;2.40;;;;;;;;;;5038150;28;20040;-83
2022/12/22 14:08:05;;;;;;;4.88;2.97;;;;;;;;;;5038236;28;20047;-83
2022/12/22 14:10:56;;;;;;;6.85;2.35;;;;;;;;;;5038084;28;20029;-83
2022/12/22 14:13:28;;;;;;;3.97;2.35;;;;;;;;;;5036610;28;20037;-81
2022/12/22 14:16:01;;;;;;;4.78;2.22;;;;;;;;;;5040090;28;20120;-81
2022/12/22 14:18:28;;;;;;;3.97;2.08;;;;;;;;;;5022844;28;20040;-81
2022/12/22 14:20:54;;;;;;;3.22;1.83;;;;;;;;;;5041695;28;20060;-82
2022/12/22 14:23:33;;;;;;;3.80;1.80;;;;;;;;;;5022221;28;20109;-81
2022/12/22 14:26:02;;;;;;;3.13;1.42;;;;;;;;;;5035966;28;20040;-82
2022/12/22 14:28:34;;;;;;;2.58;1.55;;;;;;;;;;5035714;28;20478;-82
2022/12/22 14:31:02;;;;;;;2.00;1.33;;;;;;;;;;5035584;28;20037;-83
2022/12/22 14:33:30;;;;;;;3.65;1.70;;;;;;;;;;5035622;28;20040;-83
2022/12/22 14:36:11;;;;;;;3.88;1.63;;;;;;;;;;5034928;28;20494;-83
2022/12/22 14:38:39;;;;;;;6.30;1.90;;;;;;;;;;5036785;28;20475;-82
2022/12/22 14:41:40;;;;;;;5.55;3.28;;;;;;;;;;5036290;28;20482;-83
2022/12/22 14:43:58;;;;;;;5.53;2.75;;;;;;;;;;5034916;28;20033;-81
2022/12/22 14:46:24;;;;;;;2.72;1.80;;;;;;;;;;5036771;28;20104;-81
2022/12/22 14:48:49;;;;;;;3.75;2.08;;;;;;;;;;5036249;28;20126;-82
2022/12/22 14:51:17;;;;;;;2.40;1.50;;;;;;;;;;5035347;28;20047;-81
2022/12/22 14:53:46;;;;;;;3.63;1.73;;;;;;;;;;5035137;28;20037;-82
2022/12/22 14:56:13;;;;;;;4.40;1.60;;;;;;;;;;5035239;28;20064;-82
2022/12/22 14:58:41;;;;;;;2.65;1.42;;;;;;;;;;5035704;28;20044;-81
2022/12/22 15:01:21;;;;;;;3.00;1.60;;;;;;;;;;5035953;28;20036;-82
2022/12/22 15:04:01;;;;;;;6.22;2.60;;;;;;;;;;5036396;28;20033;-82
2022/12/22 15:06:26;;;;;;;9.50;3.00;;;;;;;;;;5037720;28;20049;-84
2022/12/22 15:09:07;;;;;;;5.88;2.30;;;;;;;;;;5036576;28;20025;-85
2022/12/22 15:11:36;;;;;;;4.90;1.90;;;;;;;;;;5036897;28;20056;-84
2022/12/22 15:14:02;;;;;;;4.75;2.70;;;;;;;;;;5035535;28;20064;-84
2022/12/22 15:16:28;;;;;;;5.38;2.60;;;;;;;;;;5036358;28;20029;-84
2022/12/22 15:18:54;;;;;;;4.65;2.20;;;;;;;;;;5018613;28;20081;-85
2022/12/22 15:21:19;;;;;;;3.92;2.30;;;;;;;;;;5036579;28;20466;-84
2022/12/22 15:23:45;;;;;;;3.50;2.03;;;;;;;;;;5038793;28;20060;-87
2022/12/22 15:26:11;;;;;;;5.93;3.72;;;;;;;;;;5037835;28;20045;-85
2022/12/22 15:28:37;;;;;;;6.45;3.38;;;;;;;;;;5037436;28;20040;-85
2022/12/22 15:31:10;;;;;;;5.55;3.00;;;;;;;;;;5019834;28;20025;-85
2022/12/22 15:33:36;;;;;;;4.60;3.08;;;;;;;;;;5039005;28;20036;-85
2022/12/22 15:36:02;;;;;;;6.82;4.07;;;;;;;;;;5022078;28;20413;-85
2022/12/22 15:38:27;;;;;;;8.50;3.83;;;;;;;;;;5041424;28;20032;-86
2022/12/22 15:40:53;;;;;;;4.78;2.10;;;;;;;;;;5039626;28;20136;-84
2022/12/22 15:43:18;;;;;;;4.88;2.00;;;;;;;;;;5040537;28;20040;-86
2022/12/22 15:45:45;;;;;;;6.88;2.00;;;;;;;;;;5024726;28;20112;-86
2022/12/22 15:48:24;;;;;;;5.63;1.90;;;;;;;;;;5040690;28;20060;-86
2022/12/22 15:50:50;;;;;;;2.17;1.23;;;;;;;;;;5024230;28;20033;-84
2022/12/22 15:53:18;;;;;;;3.92;1.90;;;;;;;;;;5041412;28;20022;-86
2022/12/22 15:55:46;;;;;;;4.43;2.47;;;;;;;;;;5040553;28;20033;-86
2022/12/22 15:58:14;;;;;;;2.20;1.40;;;;;;;;;;5040938;28;20033;-85
2022/12/22 16:00:40;;;;;;;4.05;1.50;;;;;;;;;;5040527;28;20025;-85
2022/12/22 16:03:05;;;;;;;3.40;2.25;;;;;;;;;;5022641;28;20037;-85
2022/12/22 16:05:34;;;;;;;3.80;2.40;;;;;;;;;;5038655;28;20029;-86
2022/12/22 16:08:00;;;;;;;7.80;4.28;;;;;;;;;;5039964;28;20397;-85
2022/12/22 16:10:29;;;;;;;8.05;3.47;;;;;;;;;;5040060;28;20033;-85
2022/12/22 16:13:01;;;;;;;8.73;4.25;;;;;;;;;;5023296;28;20021;-85
2022/12/22 16:15:32;;;;;;;7.50;3.40;;;;;;;;;;5038699;28;20029;-85
2022/12/22 16:17:59;;;;;;;8.75;3.88;;;;;;;;;;5021363;28;20045;-84
2022/12/22 16:20:27;;;;;;;10.02;3.70;;;;;;;;;;5039164;28;20045;-85
2022/12/22 16:22:53;;;;;;;4.18;2.15;;;;;;;;;;5022489;28;20029;-85
2022/12/22 16:25:23;;;;;;;8.07;4.28;;;;;;;;;;5038220;28;20489;-84
2022/12/22 16:27:50;;;;;;;12.15;4.38;;;;;;;;;;5039715;28;20025;-84
2022/12/22 16:30:19;;;;;;;13.93;5.60;;;;;;;;;;5039249;28;20045;-85
2022/12/22 16:32:44;;;;;;;4.65;2.90;;;;;;;;;;5038375;28;20049;-84
2022/12/22 16:35:10;;;;;;;4.60;2.30;;;;;;;;;;5037564;28;20033;-84
2022/12/22 16:37:36;;;;;;;4.30;2.08;;;;;;;;;;5006033;28;20033;-85
2022/12/22 16:40:03;;;;;;;2.70;1.77;;;;;;;;;;5040139;28;20089;-85
2022/12/22 16:42:29;;;;;;;2.22;1.70;;;;;;;;;;5040907;28;20057;-85
2022/12/22 16:44:58;;;;;;;5.05;2.13;;;;;;;;;;5022503;28;20486;-85
2022/12/22 16:47:25;;;;;;;4.45;1.50;;;;;;;;;;5023897;28;20159;-85
2022/12/22 16:49:52;;;;;;;2.83;1.00;;;;;;;;;;5040453;28;20040;-85
2022/12/22 16:52:36;;;;;;;3.17;1.00;;;;;;;;;;5022517;28;20029;-83
2022/12/22 16:55:12;;;;;;;2.40;0.90;;;;;;;;;;5021669;28;20026;-85
2022/12/22 16:57:37;;;;;;;3.60;0.93;;;;;;;;;;5022423;28;20547;-85
2022/12/22 17:00:03;;;;;;;4.07;1.90;;;;;;;;;;5039425;28;20025;-85
2022/12/22 17:02:32;;;;;;;4.63;2.03;;;;;;;;;;5039819;28;20092;-84
2022/12/22 17:05:00;;;;;;;3.85;1.95;;;;;;;;;;5039942;28;20021;-84
2022/12/22 17:07:31;;;;;;;5.40;1.63;;;;;;;;;;5039706;28;20025;-84
2022/12/22 17:10:00;;;;;;;3.58;1.77;;;;;;;;;;5040073;28;20033;-84
2022/12/22 17:12:33;;;;;;;6.22;2.95;;;;;;;;;;5040690;28;20030;-85
2022/12/22 17:15:00;;;;;;;5.03;2.23;;;;;;;;;;5040732;28;20029;-87
2022/12/22 17:17:26;;;;;;;6.97;3.50;;;;;;;;;;5023705;28;20034;-85
2022/12/22 17:19:52;;;;;;;6.55;3.30;;;;;;;;;;5041076;28;20040;-87
2022/12/22 17:22:23;;;;;;;4.60;2.20;;;;;;;;;;5040080;28;20554;-87
2022/12/22 17:24:54;;;;;;;4.70;1.63;;;;;;;;;;5039660;28;20056;-88
2022/12/22 17:27:27;;;;;;;3.53;1.60;;;;;;;;;;5042034;28;20040;-87
2022/12/22 17:29:53;;;;;;;4.90;1.50;;;;;;;;;;5022189;28;20079;-87
2022/12/22 17:32:20;;;;;;;4.47;1.85;;;;;;;;;;5039652;28;20029;-87
2022/12/22 17:34:46;;;;;;;14.77;7.03;;;;;;;;;;5039133;28;20063;-87
2022/12/22 17:37:14;;;;;;;8.02;3.40;;;;;;;;;;5040386;28;20093;-87
2022/12/22 17:39:40;;;;;;;4.80;1.40;;;;;;;;;;5040495;28;20042;-87
2022/12/22 17:42:15;;;;;;;6.07;1.70;;;;;;;;;;5040074;28;20397;-87
2022/12/22 17:44:41;;;;;;;5.00;1.67;;;;;;;;;;5040312;28;20021;-87
2022/12/22 17:47:12;;;;;;;6.60;3.20;;;;;;;;;;5040264;28;20032;-87
2022/12/22 17:49:37;;;;;;;3.65;1.27;;;;;;;;;;5040193;28;20040;-87
2022/12/22 17:52:03;;;;;;;4.30;1.30;;;;;;;;;;5040215;28;20033;-87
2022/12/22 17:54:28;;;;;;;3.72;1.10;;;;;;;;;;5038443;28;20062;-87
2022/12/22 17:57:00;;;;;;;4.13;1.33;;;;;;;;;;5039022;28;20112;-88
2022/12/22 17:59:26;;;;;;;5.38;1.83;;;;;;;;;;5019986;28;20029;-87
2022/12/22 18:01:51;;;;;;;5.05;2.30;;;;;;;;;;5038132;28;20029;-87
2022/12/22 18:04:17;;;;;;;6.22;2.30;;;;;;;;;;5038846;28;20029;-87
2022/12/22 18:06:42;;;;;;;5.10;2.03;;;;;;;;;;5024248;28;20033;-87
2022/12/22 18:09:18;;;;;;;4.20;1.45;;;;;;;;;;5042356;28;20214;-87
2022/12/22 18:11:44;;;;;;;3.45;1.33;;;;;;;;;;5024730;28;20029;-87
2022/12/22 18:14:12;;;;;;;5.13;1.40;;;;;;;;;;5040835;28;20040;-87
2022/12/22 18:16:37;;;;;;;5.47;1.50;;;;;;;;;;5041350;28;20033;-86
2022/12/22 18:19:03;;;;;;;5.13;1.55;;;;;;;;;;5042688;28;20029;-87
2022/12/22 18:21:29;;;;;;;4.85;1.50;;;;;;;;;;5040349;28;20026;-85
2022/12/22 18:23:55;;;;;;;3.10;1.10;;;;;;;;;;5006773;28;20045;-84
2022/12/22 18:26:23;;;;;;;4.07;1.20;;;;;;;;;;5027431;28;20060;-86
2022/12/22 18:28:49;;;;;;;3.67;1.40;;;;;;;;;;5042078;28;20121;-85
2022/12/22 18:31:15;;;;;;;4.13;1.30;;;;;;;;;;5041970;28;20501;-85
2022/12/22 18:33:40;;;;;;;4.78;1.30;;;;;;;;;;5041703;28;20059;-85
2022/12/22 18:36:31;;;;;;;4.65;1.30;;;;;;;;;;5024463;28;20120;-85
2022/12/22 18:38:59;;;;;;;4.50;1.48;;;;;;;;;;5042873;28;20037;-85